sensor_id;sensor_type;location;lat;lon;timestamp;pressure;altitude;pressure_sealevel;temperature;humidity
64064;BME280;50314;50.618;10.642;2022-11-15T00:01:42;96502.84;;;15.16;27.81
64064;BME280;50314;50.618;10.642;2022-11-15T00:04:07;96505.66;;;15.14;28.00
64064;BME280;50314;50.618;10.642;2022-11-15T00:06:33;96504.81;;;15.14;27.90
64064;BME280;50314;50.618;10.642;2022-11-15T00:08:59;96503.84;;;15.15;28.13
64064;BME280;50314;50.618;10.642;2022-11-15T00:11:25;96503.84;;;15.15;27.64
64064;BME280;50314;50.618;10.642;2022-11-15T00:13:50;96503.00;;;15.14;28.11
64064;BME280;50314;50.618;10.642;2022-11-15T00:16:16;96508.31;;;15.14;28.00
64064;BME280;50314;50.618;10.642;2022-11-15T00:18:41;96498.69;;;15.13;27.94
64064;BME280;50314;50.618;10.642;2022-11-15T00:21:10;96502.16;;;15.14;27.98
64064;BME280;50314;50.618;10.642;2022-11-15T00:23:36;96503.00;;;15.14;28.01
64064;BME280;50314;50.618;10.642;2022-11-15T00:26:02;96506.66;;;15.13;27.90
64064;BME280;50314;50.618;10.642;2022-11-15T00:28:28;96506.47;;;15.15;28.00
64064;BME280;50314;50.618;10.642;2022-11-15T00:31:00;96502.31;;;15.12;28.02
64064;BME280;50314;50.618;10.642;2022-11-15T00:33:25;96504.81;;;15.14;28.06
64064;BME280;50314;50.618;10.642;2022-11-15T00:35:51;96504.81;;;15.14;27.89
64064;BME280;50314;50.618;10.642;2022-11-15T00:38:16;96496.03;;;15.13;27.84
64064;BME280;50314;50.618;10.642;2022-11-15T00:40:42;96492.41;;;15.14;27.87
64064;BME280;50314;50.618;10.642;2022-11-15T00:43:07;96500.34;;;15.14;27.96
64064;BME280;50314;50.618;10.642;2022-11-15T00:45:33;96495.03;;;15.14;27.89
64064;BME280;50314;50.618;10.642;2022-11-15T00:47:58;96498.69;;;15.13;27.84
64064;BME280;50314;50.618;10.642;2022-11-15T00:50:24;96487.09;;;15.14;27.77
64064;BME280;50314;50.618;10.642;2022-11-15T00:52:49;96499.53;;;15.14;28.11
64064;BME280;50314;50.618;10.642;2022-11-15T00:55:18;96485.56;;;15.12;28.12
64064;BME280;50314;50.618;10.642;2022-11-15T00:57:44;96484.56;;;15.13;28.01
64064;BME280;50314;50.618;10.642;2022-11-15T01:00:11;96489.88;;;15.13;28.02
64064;BME280;50314;50.618;10.642;2022-11-15T01:02:36;96488.09;;;15.13;27.88
64064;BME280;50314;50.618;10.642;2022-11-15T01:05:02;96480.13;;;15.13;28.10
64064;BME280;50314;50.618;10.642;2022-11-15T01:07:28;96479.25;;;15.13;27.91
64064;BME280;50314;50.618;10.642;2022-11-15T01:09:53;96478.44;;;15.12;27.71
64064;BME280;50314;50.618;10.642;2022-11-15T01:12:18;96474.94;;;15.12;27.85
64064;BME280;50314;50.618;10.642;2022-11-15T01:14:44;96473.94;;;15.13;28.12
64064;BME280;50314;50.618;10.642;2022-11-15T01:17:09;96472.28;;;15.12;27.91
64064;BME280;50314;50.618;10.642;2022-11-15T01:19:35;96467.81;;;15.12;27.82
64064;BME280;50314;50.618;10.642;2022-11-15T01:22:00;96463.50;;;15.11;27.68
64064;BME280;50314;50.618;10.642;2022-11-15T01:24:26;96460.69;;;15.13;28.08
64064;BME280;50314;50.618;10.642;2022-11-15T01:26:51;96467.81;;;15.12;27.94
64064;BME280;50314;50.618;10.642;2022-11-15T01:29:17;96466.00;;;15.13;28.02
64064;BME280;50314;50.618;10.642;2022-11-15T01:31:42;96469.63;;;15.12;27.99
64064;BME280;50314;50.618;10.642;2022-11-15T01:34:07;96463.50;;;15.11;27.85
64064;BME280;50314;50.618;10.642;2022-11-15T01:36:33;96467.97;;;15.11;27.69
64064;BME280;50314;50.618;10.642;2022-11-15T01:38:59;96465.31;;;15.11;28.13
64064;BME280;50314;50.618;10.642;2022-11-15T01:41:27;96471.59;;;15.10;27.84
64064;BME280;50314;50.618;10.642;2022-11-15T01:47:20;96453.94;;;15.00;28.33
64064;BME280;50314;50.618;10.642;2022-11-15T01:50:12;96444.28;;;14.99;28.07
64064;BME280;50314;50.618;10.642;2022-11-15T01:52:40;96446.34;;;15.06;27.99
64064;BME280;50314;50.618;10.642;2022-11-15T01:55:13;96448.34;;;15.03;28.16
64064;BME280;50314;50.618;10.642;2022-11-15T01:57:41;96448.03;;;15.07;28.05
64064;BME280;50314;50.618;10.642;2022-11-15T02:00:08;96443.69;;;15.06;27.87
64064;BME280;50314;50.618;10.642;2022-11-15T02:02:36;96445.53;;;15.05;27.98
64064;BME280;50314;50.618;10.642;2022-11-15T02:05:02;96442.75;;;15.07;27.85
64064;BME280;50314;50.618;10.642;2022-11-15T02:07:29;96443.69;;;15.06;28.08
64064;BME280;50314;50.618;10.642;2022-11-15T02:09:58;96435.06;;;15.03;27.90
64064;BME280;50314;50.618;10.642;2022-11-15T02:12:27;96432.25;;;15.05;27.83
64064;BME280;50314;50.618;10.642;2022-11-15T02:14:54;96427.13;;;15.03;27.85
64064;BME280;50314;50.618;10.642;2022-11-15T02:31:11;96410.13;;;14.96;27.89
64064;BME280;50314;50.618;10.642;2022-11-15T02:33:47;96408.44;;;14.95;28.19
64064;BME280;50314;50.618;10.642;2022-11-15T02:36:41;96408.72;;;14.92;28.19
64064;BME280;50314;50.618;10.642;2022-11-15T02:39:23;96406.78;;;14.94;28.13
64064;BME280;50314;50.618;10.642;2022-11-15T02:41:56;96407.63;;;14.95;27.93
64064;BME280;50314;50.618;10.642;2022-11-15T02:44:28;96405.78;;;14.95;28.28
64064;BME280;50314;50.618;10.642;2022-11-15T02:47:12;96400.09;;;14.90;28.17
64064;BME280;50314;50.618;10.642;2022-11-15T02:49:50;96398.28;;;14.91;28.27
64064;BME280;50314;50.618;10.642;2022-11-15T02:52:17;96397.84;;;14.95;27.91
64064;BME280;50314;50.618;10.642;2022-11-15T02:54:52;96389.06;;;14.95;28.25
64064;BME280;50314;50.618;10.642;2022-11-15T02:57:26;96382.91;;;14.94;28.09
64064;BME280;50314;50.618;10.642;2022-11-15T03:00:01;96375.94;;;14.93;28.16
64064;BME280;50314;50.618;10.642;2022-11-15T03:02:42;96384.19;;;14.90;27.97
64064;BME280;50314;50.618;10.642;2022-11-15T03:05:29;96384.19;;;14.90;27.85
64064;BME280;50314;50.618;10.642;2022-11-15T03:11:08;96374.03;;;14.86;28.04
64064;BME280;50314;50.618;10.642;2022-11-15T03:13:57;96376.00;;;14.84;27.98
64064;BME280;50314;50.618;10.642;2022-11-15T03:18:59;96377.53;;;14.86;28.11
64064;BME280;50314;50.618;10.642;2022-11-15T03:21:29;96374.72;;;14.88;28.17
64064;BME280;50314;50.618;10.642;2022-11-15T03:23:58;96368.59;;;14.87;27.87
64064;BME280;50314;50.618;10.642;2022-11-15T03:26:27;96373.06;;;14.87;28.17
64064;BME280;50314;50.618;10.642;2022-11-15T03:29:04;96360.09;;;14.84;27.97
64064;BME280;50314;50.618;10.642;2022-11-15T03:31:35;96365.22;;;14.85;27.84
64064;BME280;50314;50.618;10.642;2022-11-15T03:36:51;96368.88;;;14.84;28.19
64064;BME280;50314;50.618;10.642;2022-11-15T03:39:18;96369.72;;;14.85;27.90
64064;BME280;50314;50.618;10.642;2022-11-15T03:41:55;96369.00;;;14.83;28.12
64064;BME280;50314;50.618;10.642;2022-11-15T03:47:27;96358.88;;;14.78;27.94
64064;BME280;50314;50.618;10.642;2022-11-15T03:50:02;96359.56;;;14.80;27.90
64064;BME280;50314;50.618;10.642;2022-11-15T03:52:31;96364.69;;;14.82;27.92
64064;BME280;50314;50.618;10.642;2022-11-15T03:55:01;96355.91;;;14.81;28.17
64064;BME280;50314;50.618;10.642;2022-11-15T03:57:27;96358.56;;;14.81;28.18
64064;BME280;50314;50.618;10.642;2022-11-15T03:59:52;96354.09;;;14.82;27.84
64064;BME280;50314;50.618;10.642;2022-11-15T04:02:17;96343.50;;;14.82;28.21
64064;BME280;50314;50.618;10.642;2022-11-15T04:04:43;96343.50;;;14.82;28.10
64064;BME280;50314;50.618;10.642;2022-11-15T04:07:08;96332.06;;;14.81;27.99
64064;BME280;50314;50.618;10.642;2022-11-15T04:09:34;96341.00;;;14.80;28.11
64064;BME280;50314;50.618;10.642;2022-11-15T04:12:19;96339.31;;;14.79;28.15
64064;BME280;50314;50.618;10.642;2022-11-15T04:15:03;96338.47;;;14.78;28.06
64064;BME280;50314;50.618;10.642;2022-11-15T04:17:37;96338.66;;;14.77;28.28
64064;BME280;50314;50.618;10.642;2022-11-15T04:20:09;96329.03;;;14.76;27.84
64064;BME280;50314;50.618;10.642;2022-11-15T04:22:57;96329.03;;;14.76;28.02
64064;BME280;50314;50.618;10.642;2022-11-15T04:25:43;96337.94;;;14.75;27.96
64064;BME280;50314;50.618;10.642;2022-11-15T04:28:09;96335.28;;;14.75;28.08
64064;BME280;50314;50.618;10.642;2022-11-15T04:30:35;96343.25;;;14.75;28.19
64064;BME280;50314;50.618;10.642;2022-11-15T04:33:00;96335.28;;;14.75;27.96
64064;BME280;50314;50.618;10.642;2022-11-15T04:35:26;96343.25;;;14.75;27.83
64064;BME280;50314;50.618;10.642;2022-11-15T04:37:51;96347.59;;;14.76;28.11
64064;BME280;50314;50.618;10.642;2022-11-15T04:40:17;96337.94;;;14.75;28.16
64064;BME280;50314;50.618;10.642;2022-11-15T04:42:43;96330.00;;;14.75;28.00
64064;BME280;50314;50.618;10.642;2022-11-15T04:45:09;96331.81;;;14.74;28.25
64064;BME280;50314;50.618;10.642;2022-11-15T04:47:35;96327.34;;;14.75;27.88
64064;BME280;50314;50.618;10.642;2022-11-15T04:50:00;96323.03;;;14.74;27.91
64064;BME280;50314;50.618;10.642;2022-11-15T04:52:26;96320.38;;;14.74;27.91
64064;BME280;50314;50.618;10.642;2022-11-15T04:54:51;96324.03;;;14.73;28.28
64064;BME280;50314;50.618;10.642;2022-11-15T04:57:17;96332.81;;;14.73;28.22
64064;BME280;50314;50.618;10.642;2022-11-15T04:59:42;96327.50;;;14.73;27.85
64064;BME280;50314;50.618;10.642;2022-11-15T05:02:08;96328.47;;;14.72;27.95
64064;BME280;50314;50.618;10.642;2022-11-15T05:04:33;96324.03;;;14.73;28.26
64064;BME280;50314;50.618;10.642;2022-11-15T05:06:58;96324.03;;;14.73;27.91
64064;BME280;50314;50.618;10.642;2022-11-15T05:09:24;96333.63;;;14.74;28.18
64064;BME280;50314;50.618;10.642;2022-11-15T05:11:49;96332.09;;;14.71;28.04
64064;BME280;50314;50.618;10.642;2022-11-15T05:14:15;96327.63;;;14.72;27.88
64064;BME280;50314;50.618;10.642;2022-11-15T05:16:41;96326.81;;;14.71;28.14
64064;BME280;50314;50.618;10.642;2022-11-15T05:19:07;96320.69;;;14.71;28.13
64064;BME280;50314;50.618;10.642;2022-11-15T05:21:33;96317.19;;;14.70;27.92
64064;BME280;50314;50.618;10.642;2022-11-15T05:23:59;96312.72;;;14.71;28.18
64064;BME280;50314;50.618;10.642;2022-11-15T05:26:25;96310.91;;;14.71;27.90
64064;BME280;50314;50.618;10.642;2022-11-15T05:28:57;96306.03;;;14.67;27.87
64064;BME280;50314;50.618;10.642;2022-11-15T05:31:24;96311.06;;;14.70;27.93
64064;BME280;50314;50.618;10.642;2022-11-15T05:33:50;96304.06;;;14.69;28.26
64064;BME280;50314;50.618;10.642;2022-11-15T05:39:01;96295.28;;;14.68;28.29
64064;BME280;50314;50.618;10.642;2022-11-15T05:41:32;96288.44;;;14.66;28.31
64064;BME280;50314;50.618;10.642;2022-11-15T05:44:00;96289.16;;;14.68;28.15
64064;BME280;50314;50.618;10.642;2022-11-15T05:46:26;96284.41;;;14.62;28.38
64064;BME280;50314;50.618;10.642;2022-11-15T05:48:52;96293.72;;;14.66;27.99
64064;BME280;50314;50.618;10.642;2022-11-15T05:51:19;96292.78;;;14.67;28.13
64064;BME280;50314;50.618;10.642;2022-11-15T05:53:46;96294.47;;;14.68;28.21
64064;BME280;50314;50.618;10.642;2022-11-15T05:56:12;96297.94;;;14.68;27.95
64064;BME280;50314;50.618;10.642;2022-11-15T05:58:38;96286.50;;;14.68;27.81
64064;BME280;50314;50.618;10.642;2022-11-15T06:01:04;96293.47;;;14.69;27.82
64064;BME280;50314;50.618;10.642;2022-11-15T06:03:29;96290.13;;;14.67;27.98
64064;BME280;50314;50.618;10.642;2022-11-15T06:05:56;96291.09;;;14.66;28.14
64064;BME280;50314;50.618;10.642;2022-11-15T06:08:22;96290.13;;;14.67;28.13
64064;BME280;50314;50.618;10.642;2022-11-15T06:10:48;96290.25;;;14.65;27.96
64064;BME280;50314;50.618;10.642;2022-11-15T06:13:13;96297.38;;;14.65;27.95
64064;BME280;50314;50.618;10.642;2022-11-15T06:15:39;96300.84;;;14.65;27.92
64064;BME280;50314;50.618;10.642;2022-11-15T06:18:04;96300.84;;;14.65;28.05
64064;BME280;50314;50.618;10.642;2022-11-15T06:20:30;96310.63;;;14.65;28.04
64064;BME280;50314;50.618;10.642;2022-11-15T06:23:00;96302.00;;;14.63;27.96
64064;BME280;50314;50.618;10.642;2022-11-15T06:25:27;96306.31;;;14.64;28.10
64064;BME280;50314;50.618;10.642;2022-11-15T06:27:53;96307.97;;;14.65;28.14
64064;BME280;50314;50.618;10.642;2022-11-15T06:30:20;96306.31;;;14.64;27.84
64064;BME280;50314;50.618;10.642;2022-11-15T06:32:46;96309.81;;;14.64;27.97
64064;BME280;50314;50.618;10.642;2022-11-15T06:35:13;96312.44;;;14.64;28.17
64064;BME280;50314;50.618;10.642;2022-11-15T06:37:38;96314.28;;;14.64;28.05
64064;BME280;50314;50.618;10.642;2022-11-15T06:40:04;96310.78;;;14.63;27.82
64064;BME280;50314;50.618;10.642;2022-11-15T06:42:30;96319.69;;;14.62;28.10
64064;BME280;50314;50.618;10.642;2022-11-15T06:44:55;96316.09;;;14.63;27.72
64064;BME280;50314;50.618;10.642;2022-11-15T06:47:21;96308.44;;;14.60;28.04
64064;BME280;50314;50.618;10.642;2022-11-15T06:49:46;96316.09;;;14.63;28.12
64064;BME280;50314;50.618;10.642;2022-11-15T06:52:11;96317.06;;;14.62;28.05
64064;BME280;50314;50.618;10.642;2022-11-15T06:54:37;96323.22;;;14.63;27.90
64064;BME280;50314;50.618;10.642;2022-11-15T06:57:04;96324.16;;;14.62;28.02
64064;BME280;50314;50.618;10.642;2022-11-15T06:59:29;96325.00;;;14.62;28.22
64064;BME280;50314;50.618;10.642;2022-11-15T07:01:55;96325.88;;;14.63;27.99
64064;BME280;50314;50.618;10.642;2022-11-15T07:04:20;96322.22;;;14.64;27.88
64064;BME280;50314;50.618;10.642;2022-11-15T07:06:46;96325.88;;;14.63;27.76
64064;BME280;50314;50.618;10.642;2022-11-15T07:09:13;96325.88;;;14.63;27.79
64064;BME280;50314;50.618;10.642;2022-11-15T07:11:38;96331.84;;;14.65;28.15
64064;BME280;50314;50.618;10.642;2022-11-15T07:14:03;96332.81;;;14.64;27.73
64064;BME280;50314;50.618;10.642;2022-11-15T07:16:29;96335.47;;;14.64;28.14
64064;BME280;50314;50.618;10.642;2022-11-15T07:18:54;96333.66;;;14.64;28.15
64064;BME280;50314;50.618;10.642;2022-11-15T07:21:20;96337.13;;;14.65;27.82
64064;BME280;50314;50.618;10.642;2022-11-15T07:23:45;96331.84;;;14.65;27.73
64064;BME280;50314;50.618;10.642;2022-11-15T07:26:10;96334.47;;;14.65;27.81
64064;BME280;50314;50.618;10.642;2022-11-15T07:28:36;96333.50;;;14.66;27.74
64064;BME280;50314;50.618;10.642;2022-11-15T07:31:06;96327.53;;;14.64;28.17
64064;BME280;50314;50.618;10.642;2022-11-15T07:33:33;96330.84;;;14.66;27.95
64064;BME280;50314;50.618;10.642;2022-11-15T07:36:00;96321.94;;;14.67;28.15
64064;BME280;50314;50.618;10.642;2022-11-15T07:38:27;96326.28;;;14.68;28.28
64064;BME280;50314;50.618;10.642;2022-11-15T07:41:01;96324.59;;;14.67;28.14
64064;BME280;50314;50.618;10.642;2022-11-15T07:43:26;96319.00;;;14.70;28.18
64064;BME280;50314;50.618;10.642;2022-11-15T07:45:57;96321.50;;;14.71;28.20
64064;BME280;50314;50.618;10.642;2022-11-15T07:48:25;96322.34;;;14.72;28.53
64064;BME280;50314;50.618;10.642;2022-11-15T07:50:54;96318.72;;;14.73;28.52
64064;BME280;50314;50.618;10.642;2022-11-15T07:53:19;96318.56;;;14.74;28.43
64064;BME280;50314;50.618;10.642;2022-11-15T07:55:45;96319.38;;;14.75;28.29
64064;BME280;50314;50.618;10.642;2022-11-15T07:58:11;96314.91;;;14.75;28.33
64064;BME280;50314;50.618;10.642;2022-11-15T08:00:37;96304.19;;;14.77;28.39
64064;BME280;50314;50.618;10.642;2022-11-15T08:03:05;96306.66;;;14.78;28.24
64064;BME280;50314;50.618;10.642;2022-11-15T08:05:31;96302.19;;;14.79;28.17
64064;BME280;50314;50.618;10.642;2022-11-15T08:07:57;96305.53;;;14.81;28.33
64064;BME280;50314;50.618;10.642;2022-11-15T08:10:23;96302.72;;;14.83;28.22
64064;BME280;50314;50.618;10.642;2022-11-15T08:12:57;96302.91;;;14.81;28.55
64064;BME280;50314;50.618;10.642;2022-11-15T08:15:22;96303.19;;;14.78;28.61
64064;BME280;50314;50.618;10.642;2022-11-15T08:17:53;96299.13;;;14.84;28.29
64064;BME280;50314;50.618;10.642;2022-11-15T08:20:18;96295.00;;;14.89;28.33
64064;BME280;50314;50.618;10.642;2022-11-15T08:22:44;96300.88;;;14.93;28.05
64064;BME280;50314;50.618;10.642;2022-11-15T08:25:10;96296.25;;;14.95;28.07
64064;BME280;50314;50.618;10.642;2022-11-15T08:27:35;96293.28;;;14.98;28.28
64064;BME280;50314;50.618;10.642;2022-11-15T08:30:01;96292.16;;;15.00;28.48
64064;BME280;50314;50.618;10.642;2022-11-15T08:32:26;96283.91;;;15.03;28.58
64064;BME280;50314;50.618;10.642;2022-11-15T08:34:52;96288.91;;;15.07;28.43
64064;BME280;50314;50.618;10.642;2022-11-15T08:37:17;96277.16;;;15.09;28.63
64064;BME280;50314;50.618;10.642;2022-11-15T08:39:43;96280.50;;;15.11;28.65
64064;BME280;50314;50.618;10.642;2022-11-15T08:42:08;96274.88;;;15.14;28.42
64064;BME280;50314;50.618;10.642;2022-11-15T08:44:33;96267.59;;;15.16;28.62
64064;BME280;50314;50.618;10.642;2022-11-15T08:46:59;96271.75;;;15.19;28.49
64064;BME280;50314;50.618;10.642;2022-11-15T08:49:24;96269.81;;;15.21;28.91
64064;BME280;50314;50.618;10.642;2022-11-15T08:51:50;96267.81;;;15.23;28.69
64064;BME280;50314;50.618;10.642;2022-11-15T08:54:15;96264.84;;;15.26;28.95
64064;BME280;50314;50.618;10.642;2022-11-15T08:56:41;96256.59;;;15.29;28.71
64064;BME280;50314;50.618;10.642;2022-11-15T08:59:06;96256.47;;;15.31;28.77
64064;BME280;50314;50.618;10.642;2022-11-15T09:01:32;96260.59;;;15.33;28.88
64064;BME280;50314;50.618;10.642;2022-11-15T09:03:57;96254.16;;;15.36;28.92
64064;BME280;50314;50.618;10.642;2022-11-15T09:06:23;96250.53;;;15.37;28.54
64064;BME280;50314;50.618;10.642;2022-11-15T09:08:48;96247.72;;;15.38;28.54
64064;BME280;50314;50.618;10.642;2022-11-15T09:11:14;96248.44;;;15.40;28.66
64064;BME280;50314;50.618;10.642;2022-11-15T09:13:41;96255.09;;;15.44;28.88
64064;BME280;50314;50.618;10.642;2022-11-15T09:16:07;96248.66;;;15.47;29.08
64064;BME280;50314;50.618;10.642;2022-11-15T09:18:32;96254.47;;;15.50;28.90
64064;BME280;50314;50.618;10.642;2022-11-15T09:20:58;96260.44;;;15.53;28.84
64064;BME280;50314;50.618;10.642;2022-11-15T09:23:25;96261.66;;;15.58;28.68
64064;BME280;50314;50.618;10.642;2022-11-15T09:25:51;96255.22;;;15.61;28.78
64064;BME280;50314;50.618;10.642;2022-11-15T09:28:17;96250.56;;;15.63;28.74
64064;BME280;50314;50.618;10.642;2022-11-15T09:30:43;96247.59;;;15.66;28.99
64064;BME280;50314;50.618;10.642;2022-11-15T09:33:10;96252.59;;;15.69;28.79
64064;BME280;50314;50.618;10.642;2022-11-15T09:35:35;96243.66;;;15.70;28.82
64064;BME280;50314;50.618;10.642;2022-11-15T09:38:02;96247.00;;;15.72;28.78
64064;BME280;50314;50.618;10.642;2022-11-15T09:40:30;96240.69;;;15.73;28.72
64064;BME280;50314;50.618;10.642;2022-11-15T09:43:38;96236.53;;;15.70;28.96
64064;BME280;50314;50.618;10.642;2022-11-15T09:49:09;96234.22;;;15.76;28.70
64064;BME280;50314;50.618;10.642;2022-11-15T09:51:36;96224.28;;;15.78;28.64
64064;BME280;50314;50.618;10.642;2022-11-15T09:57:13;96220.66;;;15.79;28.87
64064;BME280;50314;50.618;10.642;2022-11-15T10:05:18;96212.56;;;15.88;28.91
64064;BME280;50314;50.618;10.642;2022-11-15T10:07:46;96215.88;;;15.90;28.74
64064;BME280;50314;50.618;10.642;2022-11-15T10:12:47;96217.91;;;15.96;28.70
64064;BME280;50314;50.618;10.642;2022-11-15T10:15:15;96215.63;;;16.02;28.74
64064;BME280;50314;50.618;10.642;2022-11-15T10:18:06;96215.31;;;16.05;28.57
64064;BME280;50314;50.618;10.642;2022-11-15T10:20:46;96205.56;;;16.13;28.56
64064;BME280;50314;50.618;10.642;2022-11-15T10:23:15;96200.63;;;16.27;28.51
64064;BME280;50314;50.618;10.642;2022-11-15T10:25:42;96194.84;;;16.39;28.53
64064;BME280;50314;50.618;10.642;2022-11-15T10:28:15;96195.88;;;16.47;28.49
64064;BME280;50314;50.618;10.642;2022-11-15T10:30:50;96198.38;;;16.56;28.43
64064;BME280;50314;50.618;10.642;2022-11-15T10:33:34;96195.72;;;16.64;28.20
64064;BME280;50314;50.618;10.642;2022-11-15T10:41:21;96181.00;;;16.95;27.97
64064;BME280;50314;50.618;10.642;2022-11-15T10:46:33;96167.34;;;17.22;27.79
64064;BME280;50314;50.618;10.642;2022-11-15T10:51:52;96163.50;;;17.41;27.78
64064;BME280;50314;50.618;10.642;2022-11-15T10:54:33;96163.19;;;17.52;27.50
64064;BME280;50314;50.618;10.642;2022-11-15T10:57:06;96170.16;;;17.61;27.50
64064;BME280;50314;50.618;10.642;2022-11-15T10:59:35;96160.97;;;17.72;27.47
64064;BME280;50314;50.618;10.642;2022-11-15T11:02:02;96155.97;;;17.77;27.48
64064;BME280;50314;50.618;10.642;2022-11-15T11:04:27;96157.94;;;17.83;27.28
64064;BME280;50314;50.618;10.642;2022-11-15T11:06:57;96146.41;;;17.91;27.13
64064;BME280;50314;50.618;10.642;2022-11-15T11:09:33;96143.91;;;17.98;27.04
64064;BME280;50314;50.618;10.642;2022-11-15T11:12:00;96140.69;;;18.02;26.91
64064;BME280;50314;50.618;10.642;2022-11-15T11:14:29;96141.88;;;18.00;27.13
64064;BME280;50314;50.618;10.642;2022-11-15T11:22:22;96124.00;;;18.17;26.87
64064;BME280;50314;50.618;10.642;2022-11-15T11:42:42;96101.06;;;18.07;25.48
64064;BME280;50314;50.618;10.642;2022-11-15T11:47:39;96092.41;;;18.14;25.98
64064;BME280;50314;50.618;10.642;2022-11-15T11:50:17;96088.88;;;18.13;25.76
64064;BME280;50314;50.618;10.642;2022-11-15T11:52:57;96090.56;;;18.14;25.85
64064;BME280;50314;50.618;10.642;2022-11-15T11:55:35;96087.53;;;18.17;25.69
64064;BME280;50314;50.618;10.642;2022-11-15T11:58:17;96085.38;;;18.13;26.17
64064;BME280;50314;50.618;10.642;2022-11-15T12:03:59;96083.53;;;18.13;26.14
64064;BME280;50314;50.618;10.642;2022-11-15T12:14:34;96082.22;;;18.17;25.88
64064;BME280;50314;50.618;10.642;2022-11-15T12:17:01;96072.84;;;18.21;26.19
64064;BME280;50314;50.618;10.642;2022-11-15T12:19:28;96065.88;;;18.20;25.99
64064;BME280;50314;50.618;10.642;2022-11-15T12:22:20;96073.22;;;18.18;26.13
64064;BME280;50314;50.618;10.642;2022-11-15T12:24:56;96068.03;;;18.17;25.91
64064;BME280;50314;50.618;10.642;2022-11-15T12:27:33;96067.88;;;18.18;26.14
64064;BME280;50314;50.618;10.642;2022-11-15T12:30:13;96068.69;;;18.19;25.81
64064;BME280;50314;50.618;10.642;2022-11-15T12:35:39;96061.19;;;18.22;25.98
64064;BME280;50314;50.618;10.642;2022-11-15T12:38:09;96062.31;;;18.28;26.18
64064;BME280;50314;50.618;10.642;2022-11-15T12:41:29;96063.50;;;18.25;25.73
64064;BME280;50314;50.618;10.642;2022-11-15T12:43:48;96054.94;;;18.30;26.01
64064;BME280;50314;50.618;10.642;2022-11-15T12:46:21;96058.81;;;18.27;26.03
64064;BME280;50314;50.618;10.642;2022-11-15T12:48:50;96064.78;;;18.29;26.12
64064;BME280;50314;50.618;10.642;2022-11-15T12:51:18;96068.47;;;18.28;25.90
64064;BME280;50314;50.618;10.642;2022-11-15T12:53:44;96061.31;;;18.29;25.58
64064;BME280;50314;50.618;10.642;2022-11-15T13:17:51;96034.72;;;18.21;25.74
64064;BME280;50314;50.618;10.642;2022-11-15T13:20:21;96029.19;;;18.22;25.81
64064;BME280;50314;50.618;10.642;2022-11-15T13:23:10;96027.06;;;18.18;25.71
64064;BME280;50314;50.618;10.642;2022-11-15T13:28:24;96019.91;;;18.18;26.16
64064;BME280;50314;50.618;10.642;2022-11-15T13:30:56;96016.75;;;18.15;26.21
64064;BME280;50314;50.618;10.642;2022-11-15T13:33:37;96014.41;;;18.12;26.09
64064;BME280;50314;50.618;10.642;2022-11-15T13:36:09;96008.94;;;18.13;26.06
64064;BME280;50314;50.618;10.642;2022-11-15T13:38:40;96009.59;;;18.15;26.06
64064;BME280;50314;50.618;10.642;2022-11-15T13:41:23;96003.09;;;18.09;26.10
64064;BME280;50314;50.618;10.642;2022-11-15T13:43:50;96001.91;;;18.12;26.19
64064;BME280;50314;50.618;10.642;2022-11-15T13:48:51;95990.63;;;18.10;25.89
64064;BME280;50314;50.618;10.642;2022-11-15T13:51:24;95991.81;;;18.07;25.86
64064;BME280;50314;50.618;10.642;2022-11-15T13:54:00;95991.34;;;18.04;26.23
64064;BME280;50314;50.618;10.642;2022-11-15T13:56:28;95989.31;;;18.06;25.95
64064;BME280;50314;50.618;10.642;2022-11-15T13:58:54;95985.81;;;18.05;26.26
64064;BME280;50314;50.618;10.642;2022-11-15T14:01:21;95984.16;;;18.04;26.35
64064;BME280;50314;50.618;10.642;2022-11-15T14:03:58;95983.84;;;17.99;26.16
64064;BME280;50314;50.618;10.642;2022-11-15T14:06:26;95975.69;;;18.01;26.27
64064;BME280;50314;50.618;10.642;2022-11-15T14:11:36;95975.38;;;17.96;26.14
64064;BME280;50314;50.618;10.642;2022-11-15T14:16:36;95975.09;;;17.91;26.32
64064;BME280;50314;50.618;10.642;2022-11-15T14:19:03;95981.25;;;17.91;26.01
64064;BME280;50314;50.618;10.642;2022-11-15T14:21:29;95975.25;;;17.89;26.32
64064;BME280;50314;50.618;10.642;2022-11-15T14:24:17;95986.63;;;17.83;26.06
64064;BME280;50314;50.618;10.642;2022-11-15T14:26:43;95975.81;;;17.84;25.93
64064;BME280;50314;50.618;10.642;2022-11-15T14:29:25;95978.34;;;17.78;25.93
64064;BME280;50314;50.618;10.642;2022-11-15T14:31:52;95972.00;;;17.79;25.92
64064;BME280;50314;50.618;10.642;2022-11-15T14:34:18;95971.19;;;17.78;26.02
64064;BME280;50314;50.618;10.642;2022-11-15T14:36:43;95967.88;;;17.76;26.04
64064;BME280;50314;50.618;10.642;2022-11-15T14:39:09;95979.72;;;17.74;26.38
64064;BME280;50314;50.618;10.642;2022-11-15T14:41:36;95964.72;;;17.73;26.32
64064;BME280;50314;50.618;10.642;2022-11-15T14:44:05;95974.72;;;17.71;25.99
64064;BME280;50314;50.618;10.642;2022-11-15T14:46:31;95967.91;;;17.68;26.08
64064;BME280;50314;50.618;10.642;2022-11-15T14:48:57;95974.25;;;17.67;26.45
64064;BME280;50314;50.618;10.642;2022-11-15T14:51:23;95966.44;;;17.66;26.10
64064;BME280;50314;50.618;10.642;2022-11-15T14:53:48;95966.63;;;17.64;26.13
64064;BME280;50314;50.618;10.642;2022-11-15T14:56:14;95957.97;;;17.62;26.00
64064;BME280;50314;50.618;10.642;2022-11-15T14:58:40;95955.31;;;17.62;26.22
64064;BME280;50314;50.618;10.642;2022-11-15T15:01:23;95952.34;;;17.57;26.31
64064;BME280;50314;50.618;10.642;2022-11-15T15:03:49;95944.38;;;17.57;26.46
64064;BME280;50314;50.618;10.642;2022-11-15T15:06:17;95948.00;;;17.56;26.20
64064;BME280;50314;50.618;10.642;2022-11-15T15:08:43;95947.38;;;17.54;26.23